createdAt,value
2023-07-06T00:00:28.529Z,37.23
2023-07-06T00:01:28.581Z,37.24
2023-07-06T00:02:28.502Z,37.29
2023-07-06T00:03:28.623Z,37.27
2023-07-06T00:04:28.573Z,37.33
2023-07-06T00:05:28.658Z,37.34
2023-07-06T00:06:28.654Z,37.31
2023-07-06T00:07:28.685Z,37.32
2023-07-06T00:08:28.848Z,37.27
2023-07-06T00:09:28.739Z,37.29
2023-07-06T00:10:28.783Z,37.27
2023-07-06T00:11:28.815Z,37.26
2023-07-06T00:12:28.877Z,37.27
2023-07-06T00:13:28.904Z,37.28
2023-07-06T00:14:28.949Z,37.28
2023-07-06T00:15:28.977Z,37.24
2023-07-06T00:16:29.054Z,37.26
2023-07-06T00:17:29.040Z,37.27
2023-07-06T00:18:29.058Z,37.27
2023-07-06T00:19:29.087Z,37.25
2023-07-06T00:20:29.141Z,37.25
2023-07-06T00:21:29.128Z,37.32
2023-07-06T00:22:29.146Z,37.28
2023-07-06T00:23:29.184Z,37.30
2023-07-06T00:24:29.162Z,37.30
2023-07-06T00:25:29.202Z,37.32
2023-07-06T00:26:29.223Z,37.28
2023-07-06T00:27:29.295Z,37.28
2023-07-06T00:28:29.385Z,37.28
2023-07-06T00:29:29.364Z,37.26
2023-07-06T00:30:29.406Z,37.25
2023-07-06T00:31:29.460Z,37.28
2023-07-06T00:32:29.983Z,37.23
2023-07-06T00:33:29.532Z,37.24
2023-07-06T00:34:29.553Z,37.26
2023-07-06T00:35:29.626Z,37.28
2023-07-06T00:36:29.658Z,37.28
2023-07-06T00:37:29.709Z,37.28
2023-07-06T00:38:29.749Z,37.25
2023-07-06T00:39:29.790Z,37.28
2023-07-06T00:40:29.812Z,37.30
2023-07-06T00:41:29.846Z,37.26
2023-07-06T00:42:29.882Z,37.26
2023-07-06T00:43:29.965Z,37.30
2023-07-06T00:44:29.966Z,37.23
2023-07-06T00:45:30.008Z,37.28
2023-07-06T00:46:30.084Z,37.24
2023-07-06T00:47:30.134Z,37.26
2023-07-06T00:48:30.143Z,37.25
2023-07-06T00:49:30.181Z,37.25
2023-07-06T00:50:30.243Z,37.25
2023-07-06T00:51:30.291Z,37.25
2023-07-06T00:52:30.335Z,37.26
2023-07-06T00:53:30.356Z,37.25
2023-07-06T00:54:30.408Z,37.23
2023-07-06T00:55:30.410Z,37.22
2023-07-06T00:56:30.474Z,37.25
2023-07-06T00:57:30.534Z,37.23
2023-07-06T00:58:30.596Z,37.25
2023-07-06T00:59:30.630Z,37.25
2023-07-06T01:00:30.673Z,37.28
2023-07-06T01:01:30.677Z,37.28
2023-07-06T01:02:30.801Z,37.26
2023-07-06T01:03:30.976Z,37.25
2023-07-06T01:04:30.828Z,37.23
2023-07-06T01:05:30.877Z,37.25
2023-07-06T01:06:30.912Z,37.23
2023-07-06T01:07:30.962Z,37.26
2023-07-06T01:08:30.998Z,37.21
2023-07-06T01:09:31.032Z,37.26
2023-07-06T01:10:31.152Z,37.23
2023-07-06T01:11:31.100Z,37.25
2023-07-06T01:12:31.189Z,37.22
2023-07-06T01:13:31.303Z,37.25
2023-07-06T01:14:31.244Z,37.23
2023-07-06T01:15:31.318Z,37.25
2023-07-06T01:16:31.554Z,37.18
2023-07-06T01:17:31.427Z,37.18
2023-07-06T01:18:31.416Z,37.23
2023-07-06T01:19:31.448Z,37.25
2023-07-06T01:20:31.520Z,37.18
2023-07-06T01:21:31.560Z,37.20
2023-07-06T01:22:31.562Z,37.19
2023-07-06T01:23:31.654Z,37.22
2023-07-06T01:24:31.651Z,37.23
2023-07-06T01:25:31.728Z,37.19
2023-07-06T01:26:31.762Z,37.22
2023-07-06T01:27:31.806Z,37.22
2023-07-06T01:28:31.852Z,37.15
2023-07-06T01:29:31.960Z,37.20
2023-07-06T01:30:31.956Z,37.20
2023-07-06T01:31:32.071Z,37.18
2023-07-06T01:32:32.073Z,37.19
2023-07-06T01:33:32.081Z,37.17
2023-07-06T01:34:32.095Z,37.14
2023-07-06T01:35:32.159Z,37.18
2023-07-06T01:36:32.201Z,37.15
2023-07-06T01:37:32.240Z,37.17
2023-07-06T01:38:32.257Z,37.11
2023-07-06T01:39:32.305Z,37.15
2023-07-06T01:40:32.344Z,37.18
2023-07-06T01:41:32.400Z,37.17
2023-07-06T01:42:32.446Z,37.16
2023-07-06T01:43:32.491Z,37.16
2023-07-06T01:44:32.502Z,37.20
2023-07-06T01:45:32.560Z,37.14
2023-07-06T01:46:32.621Z,37.17
2023-07-06T01:47:32.687Z,37.15
2023-07-06T01:48:32.693Z,37.23
2023-07-06T01:49:32.716Z,37.19
2023-07-06T01:50:32.780Z,37.14
2023-07-06T01:51:32.801Z,37.14
2023-07-06T01:52:32.836Z,37.14
2023-07-06T01:53:32.966Z,37.12
2023-07-06T01:54:32.950Z,37.16
2023-07-06T01:55:32.954Z,37.15
2023-07-06T01:56:33.005Z,37.11
2023-07-06T01:57:40.133Z,37.11
2023-07-06T01:58:34.053Z,37.11
2023-07-06T01:59:33.047Z,37.11
2023-07-06T02:00:33.034Z,37.08
2023-07-06T02:01:33.032Z,37.09
2023-07-06T02:02:33.063Z,37.14
2023-07-06T02:03:33.006Z,37.12
2023-07-06T02:04:33.035Z,37.12
2023-07-06T02:05:32.996Z,37.07
2023-07-06T02:06:32.956Z,37.14
2023-07-06T02:07:33.002Z,37.11
2023-07-06T02:08:33.000Z,37.12
2023-07-06T02:09:32.985Z,37.08
2023-07-06T02:10:32.961Z,37.11
2023-07-06T02:11:32.986Z,37.11
2023-07-06T02:12:33.077Z,37.12
2023-07-06T02:13:33.114Z,37.07
2023-07-06T02:14:33.119Z,37.08
2023-07-06T02:15:33.198Z,37.08
2023-07-06T02:16:33.246Z,37.10
2023-07-06T02:17:33.269Z,37.05
2023-07-06T02:18:33.310Z,37.08
2023-07-06T02:19:33.354Z,37.07
2023-07-06T02:20:33.399Z,37.05
2023-07-06T02:21:33.433Z,37.04
2023-07-06T02:22:33.516Z,37.07
2023-07-06T02:23:33.556Z,37.04
2023-07-06T02:24:33.606Z,36.99
2023-07-06T02:25:33.684Z,37.07
2023-07-06T02:26:33.748Z,37.07
2023-07-06T02:27:33.711Z,37.04
2023-07-06T02:28:33.733Z,37.04
2023-07-06T02:29:33.799Z,37.05
2023-07-06T02:30:33.895Z,37.05
2023-07-06T02:31:33.904Z,37.05
2023-07-06T02:32:34.124Z,37.09
2023-07-06T02:33:34.015Z,37.08
2023-07-06T02:34:34.048Z,37.01
2023-07-06T02:35:34.072Z,37.05
2023-07-06T02:36:34.167Z,36.98
2023-07-06T02:37:34.189Z,37.03
2023-07-06T02:38:34.259Z,37.01
2023-07-06T02:39:34.327Z,37.00
2023-07-06T02:40:34.385Z,37.00
2023-07-06T02:41:34.441Z,37.01
2023-07-06T02:42:34.516Z,37.00
2023-07-06T02:43:34.526Z,37.04
2023-07-06T02:44:34.524Z,37.02
2023-07-06T02:45:34.573Z,36.99
2023-07-06T02:46:34.808Z,36.99
2023-07-06T02:47:34.767Z,36.97
2023-07-06T02:48:34.721Z,36.99
2023-07-06T02:49:34.803Z,37.00
2023-07-06T02:50:34.801Z,36.96
2023-07-06T02:51:34.856Z,36.97
2023-07-06T02:52:34.903Z,36.97
2023-07-06T02:53:34.940Z,36.96
2023-07-06T02:54:35.014Z,36.96
2023-07-06T02:55:35.032Z,36.93
2023-07-06T02:56:35.113Z,36.99
2023-07-06T02:57:35.143Z,36.94
2023-07-06T02:58:35.205Z,36.97
2023-07-06T02:59:35.266Z,36.95
2023-07-06T03:00:35.302Z,36.97
2023-07-06T03:01:35.384Z,36.93
2023-07-06T03:02:35.380Z,36.96
2023-07-06T03:03:35.412Z,36.95
2023-07-06T03:04:35.502Z,36.91
2023-07-06T03:05:35.562Z,36.92
2023-07-06T03:06:35.590Z,36.90
2023-07-06T03:07:35.635Z,36.96
2023-07-06T03:08:35.705Z,36.90
2023-07-06T03:09:35.756Z,36.92
2023-07-06T03:10:35.802Z,36.96
2023-07-06T03:11:35.857Z,36.92
2023-07-06T03:12:35.863Z,36.90
2023-07-06T03:13:35.971Z,36.92
2023-07-06T03:14:36.002Z,36.92
2023-07-06T03:15:36.040Z,36.92
2023-07-06T03:16:36.092Z,36.90
2023-07-06T03:17:36.132Z,36.89
2023-07-06T03:18:36.173Z,36.89
2023-07-06T03:19:36.254Z,36.91
2023-07-06T03:20:36.268Z,36.88
2023-07-06T03:21:36.319Z,36.88
2023-07-06T03:22:36.370Z,36.89
2023-07-06T03:23:36.461Z,36.89
2023-07-06T03:24:36.507Z,36.84
2023-07-06T03:25:36.545Z,36.92
2023-07-06T03:26:36.643Z,36.89
2023-07-06T03:27:36.657Z,36.87
2023-07-06T03:28:36.723Z,36.87
2023-07-06T03:29:36.793Z,36.86
2023-07-06T03:30:36.802Z,36.86
2023-07-06T03:31:36.918Z,36.86
2023-07-06T03:32:36.937Z,36.87
2023-07-06T03:33:36.980Z,36.82
2023-07-06T03:34:37.028Z,36.86
2023-07-06T03:35:37.075Z,36.85
2023-07-06T03:36:37.108Z,36.84
2023-07-06T03:37:37.171Z,36.87
2023-07-06T03:38:37.224Z,36.86
2023-07-06T03:39:37.281Z,36.81
2023-07-06T03:40:37.324Z,36.89
2023-07-06T03:41:37.385Z,36.86
2023-07-06T03:42:37.447Z,36.83
2023-07-06T03:43:37.489Z,36.81
2023-07-06T03:44:37.561Z,36.80
2023-07-06T03:45:37.639Z,36.84
2023-07-06T03:46:37.731Z,36.81
2023-07-06T03:47:37.784Z,36.83
2023-07-06T03:48:37.781Z,36.79
2023-07-06T03:49:37.852Z,36.85
2023-07-06T03:50:37.899Z,36.78
2023-07-06T03:51:37.921Z,36.82
2023-07-06T03:52:37.990Z,36.78
2023-07-06T03:53:38.058Z,36.80
2023-07-06T03:54:38.133Z,36.79
2023-07-06T03:55:38.182Z,36.81
2023-07-06T03:56:38.240Z,36.78
2023-07-06T03:57:42.321Z,36.77
2023-07-06T03:58:39.287Z,36.77
2023-07-06T03:59:38.280Z,36.73
2023-07-06T04:00:38.274Z,36.74
2023-07-06T04:01:38.496Z,36.74
2023-07-06T04:02:38.301Z,36.75
2023-07-06T04:03:38.277Z,36.76
2023-07-06T04:04:38.238Z,36.74
2023-07-06T04:05:38.223Z,36.74
2023-07-06T04:06:38.238Z,36.70
2023-07-06T04:07:38.219Z,36.72
2023-07-06T04:08:38.274Z,36.71
2023-07-06T04:09:38.340Z,36.69
2023-07-06T04:10:38.377Z,36.70
2023-07-06T04:11:38.444Z,36.71
2023-07-06T04:12:38.492Z,36.71
2023-07-06T04:13:38.649Z,36.69
2023-07-06T04:14:38.614Z,36.69
2023-07-06T04:15:38.799Z,36.71
2023-07-06T04:16:38.816Z,36.66
2023-07-06T04:17:38.804Z,36.70
2023-07-06T04:18:38.861Z,36.69
2023-07-06T04:19:38.907Z,36.68
2023-07-06T04:20:38.976Z,36.69
2023-07-06T04:21:39.045Z,36.64
2023-07-06T04:22:39.100Z,36.66
2023-07-06T04:23:39.137Z,36.68
2023-07-06T04:24:39.231Z,36.64
2023-07-06T04:25:39.315Z,36.65
2023-07-06T04:26:39.332Z,36.62
2023-07-06T04:27:39.411Z,36.69
2023-07-06T04:28:39.457Z,36.63
2023-07-06T04:29:39.511Z,36.64
2023-07-06T04:30:39.576Z,36.64
2023-07-06T04:31:39.761Z,36.62
2023-07-06T04:32:39.718Z,36.62
2023-07-06T04:33:39.741Z,36.63
2023-07-06T04:34:39.812Z,36.63
2023-07-06T04:35:40.616Z,36.64
2023-07-06T04:36:39.915Z,36.62
2023-07-06T04:37:39.947Z,36.65
2023-07-06T04:38:40.019Z,36.56
2023-07-06T04:39:40.108Z,36.61
2023-07-06T04:40:40.149Z,36.61
2023-07-06T04:41:40.194Z,36.57
2023-07-06T04:42:40.281Z,36.61
2023-07-06T04:43:40.325Z,36.60
2023-07-06T04:44:40.370Z,36.53
2023-07-06T04:45:40.420Z,36.60
2023-07-06T04:46:40.523Z,36.56
2023-07-06T04:47:40.583Z,36.57
2023-07-06T04:48:40.612Z,36.56
2023-07-06T04:49:40.721Z,36.56
2023-07-06T04:50:40.729Z,36.56
2023-07-06T04:51:40.759Z,36.58
2023-07-06T04:52:40.847Z,36.57
2023-07-06T04:53:40.883Z,36.58
2023-07-06T04:54:40.959Z,36.57
2023-07-06T04:55:41.008Z,36.61
2023-07-06T04:56:41.073Z,36.61
2023-07-06T04:57:41.148Z,36.58
2023-07-06T04:58:41.202Z,36.58
2023-07-06T04:59:41.241Z,36.57
2023-07-06T05:00:41.603Z,36.56
2023-07-06T05:01:41.379Z,36.53
2023-07-06T05:02:41.516Z,36.50
2023-07-06T05:03:41.535Z,36.56
2023-07-06T05:04:41.570Z,36.56
2023-07-06T05:05:42.148Z,36.53
2023-07-06T05:06:41.690Z,36.53
2023-07-06T05:07:41.730Z,36.52
2023-07-06T05:08:41.779Z,36.52
2023-07-06T05:09:41.955Z,36.52
2023-07-06T05:10:41.921Z,36.52
2023-07-06T05:11:41.952Z,36.55
2023-07-06T05:12:42.039Z,36.50
2023-07-06T05:13:42.149Z,36.48
2023-07-06T05:14:43.648Z,36.46
2023-07-06T05:15:42.162Z,36.46
2023-07-06T05:16:42.151Z,36.49
2023-07-06T05:17:42.166Z,36.46
2023-07-06T05:18:42.116Z,36.46
2023-07-06T05:19:42.098Z,36.47
2023-07-06T05:20:42.126Z,36.42
2023-07-06T05:21:42.072Z,36.43
2023-07-06T05:22:42.073Z,36.41
2023-07-06T05:23:42.074Z,36.43
2023-07-06T05:24:42.075Z,36.43
2023-07-06T05:25:42.054Z,36.43
2023-07-06T05:26:42.021Z,36.43
2023-07-06T05:27:42.054Z,36.42
2023-07-06T05:28:42.036Z,36.41
2023-07-06T05:29:42.027Z,36.45
2023-07-06T05:30:42.081Z,36.42
2023-07-06T05:31:42.027Z,36.42
2023-07-06T05:32:42.025Z,36.34
2023-07-06T05:33:41.997Z,36.38
2023-07-06T05:34:42.033Z,36.36
2023-07-06T05:35:41.977Z,36.38
2023-07-06T05:36:41.980Z,36.37
2023-07-06T05:37:41.969Z,36.38
2023-07-06T05:38:41.980Z,36.31
2023-07-06T05:39:41.952Z,36.36
2023-07-06T05:40:42.015Z,36.37
2023-07-06T05:41:41.968Z,36.37
2023-07-06T05:42:41.961Z,36.33
2023-07-06T05:43:41.936Z,36.33
2023-07-06T05:44:41.909Z,36.36
2023-07-06T05:45:41.927Z,36.31
2023-07-06T05:46:41.950Z,36.31
2023-07-06T05:47:41.947Z,36.29
2023-07-06T05:48:41.904Z,36.31
2023-07-06T05:49:41.962Z,36.31
2023-07-06T05:50:41.990Z,36.29
2023-07-06T05:51:42.063Z,36.33
2023-07-06T05:52:42.112Z,36.31
2023-07-06T05:53:42.167Z,36.33
2023-07-06T05:54:42.222Z,36.24
2023-07-06T05:55:42.271Z,36.27
2023-07-06T05:56:42.330Z,36.31
2023-07-06T05:57:42.379Z,36.28
2023-07-06T05:58:42.450Z,36.24
2023-07-06T05:59:42.588Z,36.28
2023-07-06T06:00:42.580Z,36.23
2023-07-06T06:01:42.586Z,36.27
2023-07-06T06:02:42.632Z,36.27
2023-07-06T06:03:42.712Z,36.23
2023-07-06T06:04:42.722Z,36.29
2023-07-06T06:05:42.786Z,36.26
2023-07-06T06:06:42.848Z,36.27
2023-07-06T06:07:42.881Z,36.24
2023-07-06T06:08:42.918Z,36.27
2023-07-06T06:09:43.014Z,36.23
2023-07-06T06:10:43.040Z,36.25
2023-07-06T06:11:43.098Z,36.20
2023-07-06T06:12:43.115Z,36.26
2023-07-06T06:13:43.224Z,36.20
2023-07-06T06:14:43.275Z,36.19
2023-07-06T06:15:43.288Z,36.22
2023-07-06T06:16:43.379Z,36.23
2023-07-06T06:17:43.425Z,36.17
2023-07-06T06:18:44.103Z,36.19
2023-07-06T06:19:43.512Z,36.18
2023-07-06T06:20:43.565Z,36.20
2023-07-06T06:21:43.581Z,36.24
2023-07-06T06:22:43.661Z,36.21
2023-07-06T06:23:43.701Z,36.23
2023-07-06T06:24:43.796Z,36.19
2023-07-06T06:25:43.807Z,36.20
2023-07-06T06:26:43.865Z,36.20
2023-07-06T06:27:43.924Z,36.18
2023-07-06T06:28:43.958Z,36.19
2023-07-06T06:29:44.014Z,36.19
2023-07-06T06:30:44.059Z,36.18
2023-07-06T06:31:44.298Z,36.18
2023-07-06T06:32:44.250Z,36.20
2023-07-06T06:33:44.242Z,36.14
2023-07-06T06:34:44.270Z,36.15
2023-07-06T06:35:44.337Z,36.15
2023-07-06T06:36:44.412Z,36.11
2023-07-06T06:37:44.429Z,36.13
2023-07-06T06:38:44.497Z,36.14
2023-07-06T06:39:44.555Z,36.16
2023-07-06T06:40:44.593Z,36.14
2023-07-06T06:41:44.633Z,36.11
2023-07-06T06:42:44.677Z,36.14
2023-07-06T06:43:44.714Z,36.08
2023-07-06T06:44:44.778Z,36.13
2023-07-06T06:45:44.836Z,36.08
2023-07-06T06:46:44.925Z,36.15
2023-07-06T06:47:44.926Z,36.11
2023-07-06T06:48:44.967Z,36.10
2023-07-06T06:49:44.992Z,36.10
2023-07-06T06:50:45.038Z,36.05
2023-07-06T06:51:45.107Z,36.11
2023-07-06T06:52:45.126Z,36.10
2023-07-06T06:53:45.184Z,36.08
2023-07-06T06:54:45.209Z,36.09
2023-07-06T06:55:45.286Z,36.06
2023-07-06T06:56:45.340Z,36.08
2023-07-06T06:57:45.388Z,36.06
2023-07-06T06:58:45.412Z,36.08
2023-07-06T06:59:45.498Z,36.01
2023-07-06T07:00:45.550Z,36.00
2023-07-06T07:01:45.621Z,36.04
2023-07-06T07:02:45.681Z,36.05
2023-07-06T07:03:45.713Z,35.99
2023-07-06T07:04:45.770Z,36.00
2023-07-06T07:05:45.776Z,36.02
2023-07-06T07:06:45.858Z,35.98
2023-07-06T07:07:45.891Z,35.98
2023-07-06T07:08:45.929Z,35.98
2023-07-06T07:09:46.021Z,35.97
2023-07-06T07:10:46.018Z,35.93
2023-07-06T07:11:46.080Z,35.95
2023-07-06T07:12:46.144Z,35.92
2023-07-06T07:13:46.178Z,35.90
2023-07-06T07:14:46.222Z,35.90
2023-07-06T07:15:46.243Z,35.89
2023-07-06T07:16:46.425Z,35.84
2023-07-06T07:17:46.909Z,35.90
2023-07-06T07:18:46.360Z,35.87
2023-07-06T07:19:49.618Z,35.90
2023-07-06T07:20:46.391Z,35.87
2023-07-06T07:21:46.398Z,35.84
2023-07-06T07:22:46.450Z,35.88
2023-07-06T07:23:46.400Z,35.89
2023-07-06T07:24:46.485Z,35.87
2023-07-06T07:25:46.369Z,35.83
2023-07-06T07:26:46.382Z,35.87
2023-07-06T07:27:46.366Z,35.83
2023-07-06T07:28:46.348Z,35.83
2023-07-06T07:29:46.345Z,35.82
2023-07-06T07:30:46.373Z,35.84
2023-07-06T07:31:46.376Z,35.80
2023-07-06T07:32:46.369Z,35.80
2023-07-06T07:33:46.314Z,35.83
2023-07-06T07:34:46.307Z,35.77
2023-07-06T07:35:46.300Z,35.82
2023-07-06T07:36:46.345Z,35.82
2023-07-06T07:37:46.350Z,35.80
2023-07-06T07:38:46.291Z,35.79
2023-07-06T07:39:46.289Z,35.77
2023-07-06T07:40:46.281Z,35.79
2023-07-06T07:41:46.299Z,35.78
2023-07-06T07:42:46.263Z,35.75
2023-07-06T07:43:46.262Z,35.74
2023-07-06T07:44:46.253Z,35.79
2023-07-06T07:45:46.291Z,35.78
2023-07-06T07:46:46.292Z,35.82
2023-07-06T07:47:46.291Z,35.75
2023-07-06T07:48:46.272Z,35.71
2023-07-06T07:49:46.227Z,35.77
2023-07-06T07:50:46.232Z,35.73
2023-07-06T07:51:46.238Z,35.78
2023-07-06T07:52:46.222Z,35.73
2023-07-06T07:53:46.193Z,35.74
2023-07-06T07:54:46.207Z,35.70
2023-07-06T07:55:46.189Z,35.70
2023-07-06T07:56:46.177Z,35.73
2023-07-06T07:57:46.195Z,35.73
2023-07-06T07:58:46.189Z,35.76
2023-07-06T07:59:46.184Z,35.73
2023-07-06T08:00:46.185Z,35.74
2023-07-06T08:01:46.230Z,35.69
2023-07-06T08:02:46.226Z,35.71
2023-07-06T08:03:46.204Z,35.71
2023-07-06T08:04:46.164Z,35.71
2023-07-06T08:05:46.163Z,35.74
2023-07-06T08:06:46.200Z,35.70
2023-07-06T08:07:46.235Z,35.71
2023-07-06T08:08:46.283Z,35.73
2023-07-06T08:09:46.313Z,35.70
2023-07-06T08:10:46.349Z,35.71
2023-07-06T08:11:46.450Z,35.73
2023-07-06T08:12:46.396Z,35.68
2023-07-06T08:13:46.727Z,35.71
2023-07-06T08:14:46.474Z,35.68
2023-07-06T08:15:46.556Z,35.68
2023-07-06T08:16:46.543Z,35.68
2023-07-06T08:17:46.642Z,35.69
2023-07-06T08:18:46.617Z,35.71
2023-07-06T08:20:15.641Z,35.73
2023-07-06T08:21:10.375Z,35.76
2023-07-06T08:22:46.799Z,35.68
2023-07-06T08:23:46.794Z,35.68
2023-07-06T08:24:46.798Z,35.67
2023-07-06T08:25:46.807Z,35.68
2023-07-06T08:26:46.874Z,35.64
2023-07-06T08:27:46.833Z,35.67
2023-07-06T08:28:46.895Z,35.64
2023-07-06T08:29:46.895Z,35.66
2023-07-06T08:30:46.940Z,35.67
2023-07-06T08:31:47.090Z,35.62
2023-07-06T08:32:47.019Z,35.60
2023-07-06T08:33:46.989Z,35.63
2023-07-06T08:34:47.019Z,35.67
2023-07-06T08:35:47.053Z,35.63
2023-07-06T08:36:47.110Z,35.63
2023-07-06T08:37:47.121Z,35.60
2023-07-06T08:38:47.140Z,35.58
2023-07-06T08:39:47.151Z,35.60
2023-07-06T08:40:47.210Z,35.59
2023-07-06T08:41:47.218Z,35.61
2023-07-06T08:42:47.254Z,35.58
2023-07-06T08:43:47.355Z,35.57
2023-07-06T08:44:47.304Z,35.58
2023-07-06T08:45:47.299Z,35.55
2023-07-06T08:46:47.365Z,35.55
2023-07-06T08:47:47.414Z,35.53
2023-07-06T08:48:47.416Z,35.50
2023-07-06T08:49:47.455Z,35.50
2023-07-06T08:50:47.454Z,35.50
2023-07-06T08:51:47.514Z,35.49
2023-07-06T08:52:47.502Z,35.49
2023-07-06T08:53:47.532Z,35.50
2023-07-06T08:54:47.607Z,35.53
2023-07-06T08:55:47.576Z,35.56
2023-07-06T08:56:47.624Z,35.60
2023-07-06T08:57:47.648Z,35.60
2023-07-06T08:58:47.706Z,35.69
2023-07-06T08:59:47.710Z,35.62
2023-07-06T09:00:47.799Z,35.61
2023-07-06T09:01:47.799Z,35.69
2023-07-06T09:02:47.840Z,35.64
2023-07-06T09:03:47.879Z,35.62
2023-07-06T09:04:47.841Z,35.62
2023-07-06T09:05:47.921Z,35.58
2023-07-06T09:06:47.923Z,35.56
2023-07-06T09:07:47.956Z,35.57
2023-07-06T09:08:47.994Z,35.58
2023-07-06T09:09:48.002Z,35.57
2023-07-06T09:10:48.032Z,35.57
2023-07-06T09:11:48.044Z,35.57
2023-07-06T09:12:48.068Z,35.51
2023-07-06T09:13:48.131Z,35.51
2023-07-06T09:14:48.083Z,35.54
2023-07-06T09:15:48.127Z,35.51
2023-07-06T09:16:48.190Z,35.51
2023-07-06T09:17:48.260Z,35.56
2023-07-06T09:18:48.169Z,35.51
2023-07-06T09:19:48.220Z,35.51
2023-07-06T09:20:48.251Z,35.56
2023-07-06T09:21:48.230Z,35.48
2023-07-06T09:22:48.267Z,35.51
2023-07-06T09:23:48.339Z,35.51
2023-07-06T09:24:48.322Z,35.51
2023-07-06T09:25:48.334Z,35.50
2023-07-06T09:26:48.366Z,35.48
2023-07-06T09:27:48.450Z,35.51
2023-07-06T09:28:48.430Z,35.46
2023-07-06T09:29:48.424Z,35.44
2023-07-06T09:30:48.491Z,35.46
2023-07-06T09:31:48.509Z,35.46
2023-07-06T09:32:48.516Z,35.46
2023-07-06T09:33:48.513Z,35.49
2023-07-06T09:34:48.575Z,35.46
2023-07-06T09:35:48.565Z,35.47
2023-07-06T09:36:48.573Z,35.45
2023-07-06T09:37:48.610Z,35.44
2023-07-06T09:38:48.619Z,35.46
2023-07-06T09:39:48.639Z,35.43
2023-07-06T09:40:48.656Z,35.45
2023-07-06T09:41:48.696Z,35.41
2023-07-06T09:42:48.694Z,35.42
2023-07-06T09:43:48.763Z,35.37
2023-07-06T09:44:48.707Z,35.41
2023-07-06T09:45:48.753Z,35.40
2023-07-06T09:46:48.826Z,35.32
2023-07-06T09:47:48.909Z,35.37
2023-07-06T09:48:48.832Z,35.35
2023-07-06T09:49:48.809Z,35.34
2023-07-06T09:50:49.710Z,35.33
2023-07-06T09:51:48.826Z,35.35
2023-07-06T09:52:48.829Z,35.36
2023-07-06T09:53:48.858Z,35.30
2023-07-06T09:54:48.874Z,35.30
2023-07-06T09:55:48.888Z,35.28
2023-07-06T09:56:48.901Z,35.28
2023-07-06T09:57:48.936Z,35.24
2023-07-06T09:58:48.915Z,35.27
2023-07-06T09:59:48.946Z,35.30
2023-07-06T10:00:48.965Z,35.23
2023-07-06T10:01:48.953Z,35.27
2023-07-06T10:02:49.002Z,35.23
2023-07-06T10:03:48.989Z,35.22
2023-07-06T10:04:49.005Z,35.19
2023-07-06T10:05:48.988Z,35.23
2023-07-06T10:06:49.012Z,35.22
2023-07-06T10:07:49.017Z,35.22
2023-07-06T10:08:49.013Z,35.23
2023-07-06T10:09:49.042Z,35.23
2023-07-06T10:10:49.038Z,35.23
2023-07-06T10:11:49.040Z,35.23
2023-07-06T10:12:49.086Z,35.25
2023-07-06T10:13:49.128Z,35.26
2023-07-06T10:14:49.065Z,35.28
2023-07-06T10:15:49.126Z,35.23
2023-07-06T10:16:49.167Z,35.19
2023-07-06T10:17:49.094Z,35.17
2023-07-06T10:18:49.157Z,35.18
2023-07-06T10:19:49.160Z,35.18
2023-07-06T10:20:49.129Z,35.18
2023-07-06T10:21:49.141Z,35.20
2023-07-06T10:22:49.170Z,35.18
2023-07-06T10:23:49.138Z,35.17
2023-07-06T10:24:49.168Z,35.22
2023-07-06T10:25:49.162Z,35.14
2023-07-06T10:26:49.174Z,35.16
2023-07-06T10:27:49.184Z,35.14
2023-07-06T10:28:49.227Z,35.08
2023-07-06T10:29:49.261Z,35.04
2023-07-06T10:30:49.208Z,35.03
2023-07-06T10:31:49.264Z,35.01
2023-07-06T10:32:49.274Z,35.01
2023-07-06T10:33:49.236Z,34.96
2023-07-06T10:34:49.308Z,34.99
2023-07-06T10:35:49.239Z,35.05
2023-07-06T10:36:49.284Z,35.05
2023-07-06T10:37:49.274Z,35.06
2023-07-06T10:38:49.254Z,35.04
2023-07-06T10:39:49.294Z,35.04
2023-07-06T10:40:49.299Z,35.03
2023-07-06T10:41:49.287Z,35.02
2023-07-06T10:42:49.293Z,35.03
2023-07-06T10:43:49.288Z,34.94
2023-07-06T10:44:49.293Z,34.92
2023-07-06T10:45:49.393Z,35.01
2023-07-06T10:46:49.283Z,35.02
2023-07-06T10:47:49.333Z,34.98
2023-07-06T10:48:49.301Z,35.00
2023-07-06T10:49:49.329Z,34.99
2023-07-06T10:50:49.315Z,35.00
2023-07-06T10:51:49.299Z,35.01
2023-07-06T10:52:49.292Z,35.04
2023-07-06T10:53:49.296Z,35.02
2023-07-06T10:54:49.406Z,35.02
2023-07-06T10:55:49.392Z,35.03
2023-07-06T10:56:49.293Z,35.01
2023-07-06T10:57:49.334Z,35.00
2023-07-06T10:58:49.281Z,35.04
2023-07-06T10:59:49.368Z,35.00
2023-07-06T11:00:49.281Z,34.98
2023-07-06T11:01:49.366Z,35.01
2023-07-06T11:02:49.440Z,35.02
2023-07-06T11:03:49.331Z,34.98
2023-07-06T11:04:49.300Z,34.98
2023-07-06T11:05:49.306Z,35.01
2023-07-06T11:06:49.248Z,34.99
2023-07-06T11:07:49.283Z,35.06
2023-07-06T11:08:49.265Z,35.03
2023-07-06T11:09:49.257Z,34.97
2023-07-06T11:10:49.270Z,34.98
2023-07-06T11:11:49.260Z,34.97
2023-07-06T11:12:49.241Z,34.98
2023-07-06T11:13:49.353Z,34.98
2023-07-06T11:14:49.266Z,34.95
2023-07-06T11:15:49.340Z,34.94
2023-07-06T11:16:49.400Z,34.90
2023-07-06T11:17:49.300Z,34.92
2023-07-06T11:18:49.328Z,34.89
2023-07-06T11:19:49.370Z,34.89
2023-07-06T11:20:49.284Z,34.85
2023-07-06T11:21:49.283Z,34.85
2023-07-06T11:22:49.249Z,34.84
2023-07-06T11:23:49.283Z,34.85
2023-07-06T11:24:49.291Z,34.79
2023-07-06T11:25:49.268Z,34.77
2023-07-06T11:26:49.256Z,34.76
2023-07-06T11:27:49.257Z,34.76
2023-07-06T11:28:49.258Z,34.80
2023-07-06T11:29:49.265Z,34.77
2023-07-06T11:30:49.271Z,34.76
2023-07-06T11:31:49.327Z,34.83
2023-07-06T11:32:49.245Z,34.80
2023-07-06T11:33:49.251Z,34.81
2023-07-06T11:34:49.257Z,34.80
2023-07-06T11:35:49.239Z,34.81
2023-07-06T11:36:49.247Z,34.83
2023-07-06T11:37:58.260Z,34.77
2023-07-06T11:38:50.220Z,34.77
2023-07-06T11:39:49.220Z,34.85
2023-07-06T11:40:49.278Z,34.81
2023-07-06T11:41:49.221Z,34.76
2023-07-06T11:42:49.221Z,34.70
2023-07-06T11:43:49.187Z,34.71
2023-07-06T11:44:49.183Z,34.74
2023-07-06T11:45:49.204Z,34.68
2023-07-06T11:46:49.186Z,34.71
2023-07-06T11:47:49.200Z,34.71
2023-07-06T11:48:49.173Z,34.79
2023-07-06T11:49:49.199Z,34.68
2023-07-06T11:50:49.162Z,34.68
2023-07-06T11:51:49.139Z,34.68
2023-07-06T11:52:49.151Z,34.63
2023-07-06T11:53:49.144Z,34.61
2023-07-06T11:54:49.682Z,34.63
2023-07-06T11:55:49.159Z,34.66
2023-07-06T11:56:49.129Z,34.68
2023-07-06T11:57:49.101Z,34.59
2023-07-06T11:58:49.089Z,34.57
2023-07-06T11:59:49.099Z,34.59
2023-07-06T12:00:49.138Z,34.56
2023-07-06T12:01:49.111Z,34.56
2023-07-06T12:02:49.159Z,34.56
2023-07-06T12:03:49.094Z,34.56
2023-07-06T12:04:49.050Z,34.51
2023-07-06T12:05:51.890Z,34.49
2023-07-06T12:06:49.052Z,34.55
2023-07-06T12:07:49.047Z,34.47
2023-07-06T12:08:49.043Z,34.50
2023-07-06T12:09:49.025Z,34.45
2023-07-06T12:10:49.004Z,34.39
2023-07-06T12:11:49.002Z,34.39
2023-07-06T12:12:48.983Z,34.42
2023-07-06T12:13:49.038Z,34.38
2023-07-06T12:14:48.995Z,34.37
2023-07-06T12:15:49.021Z,34.34
2023-07-06T12:16:48.971Z,34.30
2023-07-06T12:17:48.985Z,34.29
2023-07-06T12:18:48.956Z,34.33
2023-07-06T12:19:48.935Z,34.40
2023-07-06T12:20:48.956Z,34.28
2023-07-06T12:21:48.951Z,34.32
2023-07-06T12:22:48.917Z,34.27
2023-07-06T12:23:48.956Z,34.25
2023-07-06T12:24:48.894Z,34.21
2023-07-06T12:25:48.924Z,34.24
2023-07-06T12:26:48.888Z,34.19
2023-07-06T12:27:48.884Z,34.21
2023-07-06T12:28:48.879Z,34.16
2023-07-06T12:29:48.891Z,34.22
2023-07-06T12:30:48.910Z,34.21
2023-07-06T12:31:48.859Z,34.22
2023-07-06T12:32:48.903Z,34.14
2023-07-06T12:33:48.873Z,34.13
2023-07-06T12:34:48.853Z,34.16
2023-07-06T12:35:48.804Z,34.10
2023-07-06T12:36:48.831Z,34.02
2023-07-06T12:37:48.825Z,34.05
2023-07-06T12:38:48.795Z,33.91
2023-07-06T12:39:48.819Z,33.97
2023-07-06T12:40:48.896Z,33.90
2023-07-06T12:41:48.794Z,33.92
2023-07-06T12:42:48.771Z,33.93
2023-07-06T12:43:48.762Z,33.89
2023-07-06T12:44:48.746Z,33.86
2023-07-06T12:45:48.905Z,33.87
2023-07-06T12:46:48.806Z,33.85
2023-07-06T12:47:48.828Z,33.81
2023-07-06T12:48:48.728Z,33.77
2023-07-06T12:50:49.722Z,33.80
2023-07-06T12:51:48.709Z,33.67
2023-07-06T12:52:48.689Z,33.85
2023-07-06T12:53:48.710Z,33.87
2023-07-06T12:54:48.695Z,33.83